Time;durP1;ratioP1;P1;durP2;ratioP2;P2;SDS_P1;SDS_P2;PMS_P1;PMS_P2;Temp;Humidity;BMP_temperature;BMP_pressure;BME280_temperature;BME280_humidity;BME280_pressure;Samples;Min_cycle;Max_cycle;Signal;HPM_P1;HPM_P2
2021/12/27 00:01:00;;;;;;;70.32;37.17;;;21.50;32.10;;;;;;6157937;28;84498;-69
2021/12/27 00:04:01;;;;;;;64.63;36.67;;;21.50;32.20;;;;;;6160938;28;83234;-69
2021/12/27 00:07:01;;;;;;;64.45;36.80;;;21.50;32.00;;;;;;6174309;28;83482;-69
2021/12/27 00:10:02;;;;;;;69.82;36.50;;;21.50;31.90;;;;;;6174961;28;82937;-69
2021/12/27 00:13:04;;;;;;;70.38;37.85;;;21.40;32.20;;;;;;6168878;28;83607;-68
2021/12/27 00:16:04;;;;;;;61.92;34.55;;;21.40;32.10;;;;;;6173658;28;83311;-70
2021/12/27 00:19:06;;;;;;;65.72;35.97;;;21.40;32.10;;;;;;6158931;28;85583;-68
2021/12/27 00:22:06;;;;;;;66.03;36.33;;;21.50;32.30;;;;;;6158426;28;83182;-68
2021/12/27 00:25:07;;;;;;;67.35;37.58;;;21.40;31.80;;;;;;6157680;28;83739;-68
2021/12/27 00:28:08;;;;;;;72.60;38.75;;;21.40;32.00;;;;;;6160054;28;82949;-69
2021/12/27 00:31:08;;;;;;;66.38;37.85;;;21.40;31.80;;;;;;6164035;28;83483;-69
2021/12/27 00:34:09;;;;;;;72.25;39.45;;;21.40;31.90;;;;;;6165731;28;82905;-69
2021/12/27 00:37:09;;;;;;;67.82;38.40;;;21.40;32.00;;;;;;6164931;28;84067;-68
2021/12/27 00:40:11;;;;;;;70.38;39.42;;;21.40;31.70;;;;;;6163965;28;83839;-69
2021/12/27 00:43:11;;;;;;;73.15;38.95;;;21.40;32.10;;;;;;6173999;28;83256;-68
2021/12/27 00:46:12;;;;;;;67.68;38.05;;;21.30;31.80;;;;;;6163223;28;83040;-69
2021/12/27 00:49:12;;;;;;;69.93;39.30;;;21.40;32.00;;;;;;6149591;28;83337;-69
2021/12/27 00:52:13;;;;;;;77.30;41.88;;;21.30;31.60;;;;;;6154957;28;83637;-68
2021/12/27 00:55:15;;;;;;;70.07;39.00;;;21.30;31.70;;;;;;6165266;28;83472;-68
2021/12/27 00:58:15;;;;;;;75.95;40.53;;;21.30;31.50;;;;;;6164478;28;83574;-69
2021/12/27 01:01:16;;;;;;;67.72;39.78;;;21.30;31.80;;;;;;6168094;28;82968;-69
2021/12/27 01:04:16;;;;;;;76.82;41.72;;;21.30;31.30;;;;;;6157668;28;82847;-68
2021/12/27 01:07:17;;;;;;;75.50;40.20;;;21.30;31.60;;;;;;6162138;28;84254;-68
2021/12/27 01:16:21;;;;;;;72.18;40.22;;;21.20;31.40;;;;;;6169144;27;83248;-67
2021/12/27 01:19:23;;;;;;;73.00;40.88;;;21.30;31.20;;;;;;6169818;27;83107;-68
2021/12/27 01:22:23;;;;;;;68.60;40.28;;;21.20;31.40;;;;;;6166010;28;83014;-68
2021/12/27 01:25:24;;;;;;;80.28;43.65;;;21.20;31.30;;;;;;6169144;27;83160;-68
2021/12/27 01:28:24;;;;;;;73.63;40.47;;;21.20;31.10;;;;;;6161991;27;82937;-68
2021/12/27 01:31:25;;;;;;;72.40;39.47;;;21.20;31.00;;;;;;6163538;28;82969;-69
2021/12/27 01:34:26;;;;;;;75.55;40.17;;;21.20;31.00;;;;;;6173197;27;83132;-69
2021/12/27 01:37:27;;;;;;;77.13;41.17;;;21.20;31.20;;;;;;6159235;28;82945;-69
2021/12/27 01:40:27;;;;;;;81.45;43.53;;;21.20;30.80;;;;;;6158345;27;83676;-69
2021/12/27 01:43:28;;;;;;;80.63;44.10;;;21.20;30.90;;;;;;6160015;28;83113;-70
2021/12/27 01:46:30;;;;;;;76.65;41.35;;;21.20;30.90;;;;;;6169656;27;84013;-69
2021/12/27 01:49:30;;;;;;;81.28;43.20;;;21.20;31.00;;;;;;6171761;27;83297;-69
2021/12/27 01:52:31;;;;;;;81.53;44.08;;;21.10;31.00;;;;;;6157378;28;82917;-70
2021/12/27 01:55:31;;;;;;;80.75;44.20;;;21.10;30.70;;;;;;6154075;28;82978;-70
2021/12/27 01:58:32;;;;;;;75.28;42.78;;;21.10;30.90;;;;;;6154738;28;84253;-69
2021/12/27 02:01:32;;;;;;;78.30;42.30;;;21.10;30.90;;;;;;6171782;28;84758;-67
2021/12/27 02:04:33;;;;;;;78.70;40.95;;;21.10;31.10;;;;;;6158264;28;84450;-67
2021/12/27 02:07:33;;;;;;;78.78;42.40;;;21.10;31.30;;;;;;6169318;28;83945;-67
2021/12/27 02:10:34;;;;;;;74.18;39.20;;;21.10;31.80;;;;;;6158911;28;83986;-67
2021/12/27 02:13:36;;;;;;;75.63;39.53;;;21.10;32.10;;;;;;6163828;28;83201;-67
2021/12/27 02:16:37;;;;;;;75.05;39.53;;;21.10;32.20;;;;;;6159260;28;82878;-67
2021/12/27 02:19:38;;;;;;;74.85;40.95;;;21.10;32.30;;;;;;6177835;27;83254;-67
2021/12/27 02:22:40;;;;;;;75.03;40.63;;;21.10;32.50;;;;;;6158973;28;83862;-67
2021/12/27 02:25:40;;;;;;;66.53;37.88;;;21.10;32.30;;;;;;6159092;28;84102;-67
2021/12/27 02:28:41;;;;;;;72.53;39.22;;;21.10;32.50;;;;;;6157208;28;83268;-68
2021/12/27 02:31:42;;;;;;;76.85;39.47;;;21.10;32.40;;;;;;6169182;28;82976;-68
2021/12/27 02:34:42;;;;;;;76.28;39.22;;;21.10;32.20;;;;;;6159925;28;83543;-69
2021/12/27 02:37:43;;;;;;;76.63;40.60;;;21.10;32.30;;;;;;6151909;28;83882;-67
2021/12/27 02:40:44;;;;;;;71.28;40.47;;;21.10;32.60;;;;;;6160082;28;83133;-67
2021/12/27 02:43:45;;;;;;;75.18;41.10;;;21.10;32.70;;;;;;6158572;28;82921;-67
2021/12/27 02:46:45;;;;;;;77.72;41.53;;;21.10;32.60;;;;;;6170367;27;84093;-67
2021/12/27 02:49:46;;;;;;;81.15;42.22;;;21.10;32.30;;;;;;6157707;28;84024;-66
2021/12/27 02:52:46;;;;;;;78.03;41.28;;;21.10;32.60;;;;;;6159405;28;85256;-67
2021/12/27 02:55:47;;;;;;;81.18;43.20;;;21.10;32.90;;;;;;6156601;28;82947;-68
2021/12/27 02:58:47;;;;;;;81.45;43.78;;;21.00;32.70;;;;;;6176573;27;83517;-67
2021/12/27 03:01:48;;;;;;;84.40;42.63;;;21.10;32.20;;;;;;6174673;27;83142;-68
2021/12/27 03:04:48;;;;;;;81.32;44.28;;;21.10;32.50;;;;;;6176024;27;83123;-68
2021/12/27 03:07:49;;;;;;;80.95;44.10;;;21.10;32.10;;;;;;6166999;28;83406;-68
2021/12/27 03:10:49;;;;;;;82.10;44.20;;;21.10;32.30;;;;;;6160901;28;83942;-68
2021/12/27 03:13:53;;;;;;;87.45;46.17;;;21.20;31.00;;;;;;6159797;28;84313;-68
2021/12/27 03:16:53;;;;;;;89.22;48.15;;;21.30;30.70;;;;;;6168248;28;83090;-69
2021/12/27 03:19:54;;;;;;;87.57;46.40;;;21.40;29.90;;;;;;6163053;28;89857;-68
2021/12/27 03:22:54;;;;;;;92.45;49.00;;;21.50;29.70;;;;;;6176243;28;84295;-67
2021/12/27 03:25:55;;;;;;;93.40;49.47;;;21.50;29.20;;;;;;6173168;27;83498;-67
2021/12/27 03:28:55;;;;;;;89.53;48.20;;;21.60;28.90;;;;;;6164889;28;83492;-66
2021/12/27 03:31:58;;;;;;;92.85;49.17;;;21.60;28.60;;;;;;6173199;27;83397;-67
2021/12/27 03:35:07;;;;;;;96.22;50.50;;;21.70;28.20;;;;;;6156310;28;84179;-70
2021/12/27 03:38:08;;;;;;;91.40;47.17;;;21.70;28.10;;;;;;6163542;28;84039;-69
2021/12/27 03:41:08;;;;;;;90.07;46.85;;;21.70;27.90;;;;;;6162138;28;83223;-66
2021/12/27 03:44:09;;;;;;;81.68;45.58;;;21.70;27.80;;;;;;6166384;28;84528;-66
2021/12/27 03:47:09;;;;;;;78.63;42.83;;;21.80;27.70;;;;;;6166626;28;86508;-68
2021/12/27 03:50:10;;;;;;;80.25;41.42;;;21.80;27.80;;;;;;6165257;28;84192;-66
2021/12/27 03:53:10;;;;;;;76.22;42.97;;;21.90;27.80;;;;;;6160087;28;83330;-67
2021/12/27 03:56:11;;;;;;;72.63;39.22;;;21.80;27.80;;;;;;6156712;28;83519;-66
2021/12/27 04:02:34;;;;;;;66.57;36.25;;;21.90;28.00;;;;;;6167122;28;83318;-67
2021/12/27 04:05:34;;;;;;;67.32;37.45;;;21.90;28.00;;;;;;6169720;28;83013;-66
2021/12/27 04:08:35;;;;;;;67.82;36.60;;;21.90;28.10;;;;;;6163674;27;83750;-66
2021/12/27 04:11:35;;;;;;;65.88;37.40;;;22.00;28.20;;;;;;6170738;28;83271;-66
2021/12/27 04:14:36;;;;;;;65.78;35.83;;;22.00;28.10;;;;;;6161024;27;83183;-66
2021/12/27 04:17:36;;;;;;;67.72;37.28;;;22.00;28.20;;;;;;6169958;28;82961;-66
2021/12/27 04:20:37;;;;;;;61.33;33.85;;;22.00;28.20;;;;;;6158369;28;82887;-68
2021/12/27 04:23:37;;;;;;;58.95;33.78;;;22.10;28.20;;;;;;6155268;28;83315;-68
2021/12/27 04:26:38;;;;;;;55.80;32.95;;;22.10;28.20;;;;;;6171849;28;83527;-67
2021/12/27 04:29:38;;;;;;;54.58;31.70;;;22.10;28.30;;;;;;6172162;28;83490;-67
2021/12/27 04:32:39;;;;;;;57.00;32.60;;;22.10;28.50;;;;;;6149692;28;85619;-67
2021/12/27 04:35:39;;;;;;;51.05;30.15;;;22.10;28.40;;;;;;6172493;28;82987;-70
2021/12/27 04:38:42;;;;;;;54.40;30.88;;;22.20;28.40;;;;;;6158223;28;83102;-66
2021/12/27 04:41:43;;;;;;;54.78;28.98;;;22.20;28.40;;;;;;6157185;27;86929;-70
2021/12/27 04:44:43;;;;;;;52.92;29.08;;;22.20;28.40;;;;;;6158800;28;83432;-68
2021/12/27 04:47:44;;;;;;;49.63;28.48;;;22.20;28.40;;;;;;6156499;27;82956;-67
2021/12/27 04:50:44;;;;;;;48.63;27.90;;;22.20;28.40;;;;;;6161333;28;84125;-67
2021/12/27 04:53:45;;;;;;;51.80;28.13;;;22.20;28.40;;;;;;6158466;28;82839;-66
2021/12/27 04:56:47;;;;;;;51.58;28.52;;;22.30;28.30;;;;;;6160374;28;83438;-65
2021/12/27 04:59:47;;;;;;;52.30;28.85;;;22.30;28.20;;;;;;6158992;28;83976;-66
2021/12/27 05:02:48;;;;;;;50.28;28.70;;;22.30;28.10;;;;;;6173946;28;83011;-65
2021/12/27 05:05:48;;;;;;;50.03;28.35;;;22.30;27.90;;;;;;6164788;28;82916;-65
2021/12/27 05:08:50;;;;;;;46.70;26.63;;;22.40;27.70;;;;;;6163802;28;83997;-67
2021/12/27 05:11:50;;;;;;;53.42;29.05;;;22.40;27.60;;;;;;6174658;28;83218;-65
2021/12/27 05:14:50;;;;;;;53.17;28.08;;;22.40;27.40;;;;;;6156688;28;83082;-68
2021/12/27 05:17:51;;;;;;;47.90;27.58;;;22.40;27.50;;;;;;6153430;28;83006;-66
2021/12/27 05:20:52;;;;;;;49.60;28.65;;;22.50;27.40;;;;;;6147228;28;83792;-67
2021/12/27 05:23:52;;;;;;;49.13;27.77;;;22.40;27.60;;;;;;6151102;28;84281;-67
2021/12/27 05:26:53;;;;;;;49.67;26.65;;;22.50;27.70;;;;;;6155725;28;83369;-68
2021/12/27 05:29:53;;;;;;;47.85;26.63;;;22.50;27.90;;;;;;6154935;28;83384;-65
2021/12/27 05:32:54;;;;;;;42.10;25.25;;;22.50;27.90;;;;;;6156325;28;84681;-62
2021/12/27 05:35:54;;;;;;;41.47;22.35;;;22.50;29.10;;;;;;6154422;28;89684;-69
2021/12/27 05:38:55;;;;;;;30.00;17.92;;;22.50;30.60;;;;;;6159286;28;84124;-66
2021/12/27 05:41:55;;;;;;;26.52;16.40;;;22.50;32.30;;;;;;6157373;28;83495;-65
2021/12/27 05:44:56;;;;;;;28.50;15.90;;;22.50;33.20;;;;;;6160230;28;83010;-64
2021/12/27 05:47:56;;;;;;;26.05;14.90;;;22.50;34.20;;;;;;6158991;28;83515;-66
2021/12/27 05:50:57;;;;;;;25.08;13.73;;;22.50;34.90;;;;;;6158494;28;84381;-65
2021/12/27 05:53:57;;;;;;;21.27;13.07;;;22.50;35.30;;;;;;6158982;28;84430;-66
2021/12/27 05:56:58;;;;;;;28.85;13.68;;;22.50;35.60;;;;;;6159848;28;83490;-65
2021/12/27 05:59:58;;;;;;;26.88;15.07;;;22.50;36.20;;;;;;6154521;28;85165;-66
2021/12/27 06:02:59;;;;;;;31.63;16.23;;;22.50;36.30;;;;;;6159632;28;82881;-64
2021/12/27 06:05:59;;;;;;;34.15;18.50;;;22.50;36.50;;;;;;6156788;28;84744;-66
2021/12/27 06:09:00;;;;;;;30.45;17.73;;;22.50;37.20;;;;;;6159399;28;82940;-67
2021/12/27 06:12:01;;;;;;;28.70;16.80;;;22.50;37.50;;;;;;6155125;28;83978;-67
2021/12/27 06:15:01;;;;;;;32.70;17.63;;;22.50;38.20;;;;;;6157619;28;83559;-66
2021/12/27 06:18:02;;;;;;;33.10;16.52;;;22.50;37.90;;;;;;6158736;28;82957;-67
2021/12/27 06:21:04;;;;;;;30.85;17.17;;;22.40;38.50;;;;;;6158661;28;84009;-66
2021/12/27 06:24:04;;;;;;;24.45;14.95;;;22.40;38.70;;;;;;6158007;28;83047;-67
2021/12/27 06:27:05;;;;;;;27.08;15.07;;;22.30;39.00;;;;;;6156353;28;83118;-67
2021/12/27 06:30:07;;;;;;;22.20;12.93;;;22.30;38.90;;;;;;6156216;28;83281;-65
2021/12/27 06:33:07;;;;;;;22.33;13.07;;;22.20;39.50;;;;;;6148465;28;83616;-65
2021/12/27 06:36:08;;;;;;;19.58;11.70;;;22.20;39.40;;;;;;6155450;28;83154;-67
2021/12/27 06:39:08;;;;;;;18.48;11.00;;;22.20;39.20;;;;;;6155527;28;84211;-67
2021/12/27 06:42:09;;;;;;;18.48;10.80;;;22.20;40.00;;;;;;6158282;28;83180;-68
2021/12/27 06:45:09;;;;;;;17.85;10.05;;;22.20;39.40;;;;;;6155928;28;85466;-67
2021/12/27 06:48:10;;;;;;;17.77;10.65;;;22.10;39.20;;;;;;6145924;28;84300;-66
2021/12/27 06:51:10;;;;;;;18.00;10.15;;;22.10;38.90;;;;;;6149206;28;83855;-67
2021/12/27 06:54:11;;;;;;;17.90;10.80;;;22.00;38.20;;;;;;6147466;28;84369;-65
2021/12/27 06:57:11;;;;;;;20.77;11.27;;;22.00;38.70;;;;;;6149107;28;83465;-65
2021/12/27 07:00:12;;;;;;;21.10;12.52;;;22.00;38.60;;;;;;6157484;28;83192;-64
2021/12/27 07:03:14;;;;;;;23.92;11.88;;;21.90;38.10;;;;;;6162004;28;83980;-65
2021/12/27 07:06:15;;;;;;;19.20;11.10;;;21.90;38.10;;;;;;6157928;28;82951;-64
2021/12/27 07:09:15;;;;;;;19.30;10.65;;;21.90;38.10;;;;;;6146667;28;83207;-65
2021/12/27 07:12:16;;;;;;;19.80;10.80;;;21.80;38.10;;;;;;6132236;28;84739;-65
2021/12/27 07:15:16;;;;;;;20.63;11.48;;;21.80;37.90;;;;;;6155853;28;83167;-65
2021/12/27 07:18:22;;;;;;;19.58;10.48;;;21.80;38.40;;;;;;6155475;28;83831;-64
2021/12/27 07:21:23;;;;;;;19.27;10.38;;;21.70;38.00;;;;;;6153281;28;84086;-68
2021/12/27 07:24:23;;;;;;;16.35;9.80;;;21.70;38.50;;;;;;6157029;28;84849;-64
2021/12/27 07:27:24;;;;;;;16.92;10.73;;;21.70;38.70;;;;;;6159508;28;83528;-64
2021/12/27 07:30:24;;;;;;;20.00;10.25;;;21.70;38.70;;;;;;6157302;28;85968;-64
2021/12/27 07:33:25;;;;;;;18.15;9.85;;;21.60;39.00;;;;;;6155054;28;83030;-65
2021/12/27 07:36:25;;;;;;;14.68;9.05;;;21.60;38.90;;;;;;6160130;28;83231;-65
2021/12/27 07:39:26;;;;;;;20.45;9.88;;;21.60;39.20;;;;;;6161465;28;80598;-67
2021/12/27 07:42:26;;;;;;;18.50;9.57;;;21.60;38.70;;;;;;6161307;28;83217;-65
2021/12/27 07:45:27;;;;;;;18.42;10.52;;;21.60;38.50;;;;;;6158760;28;80824;-66
2021/12/27 07:48:27;;;;;;;16.55;9.40;;;21.50;38.70;;;;;;6151795;28;83363;-66
2021/12/27 07:51:28;;;;;;;15.25;8.93;;;21.60;39.40;;;;;;6159784;28;83038;-67
2021/12/27 07:54:28;;;;;;;18.20;9.95;;;21.60;39.60;;;;;;6156856;28;81000;-66
2021/12/27 07:57:29;;;;;;;15.63;9.48;;;21.50;39.70;;;;;;6159818;28;80468;-66
2021/12/27 08:00:29;;;;;;;14.50;8.82;;;21.50;39.10;;;;;;6159240;28;82496;-66
2021/12/27 08:03:30;;;;;;;15.07;8.95;;;21.50;39.80;;;;;;6162204;28;80600;-67
2021/12/27 08:06:31;;;;;;;15.52;9.55;;;21.50;39.70;;;;;;6166061;28;81787;-66
2021/12/27 08:09:31;;;;;;;16.02;8.45;;;21.50;39.60;;;;;;6163757;28;81666;-69
2021/12/27 08:12:32;;;;;;;16.52;9.70;;;21.50;39.40;;;;;;6160626;28;81459;-67
2021/12/27 08:15:32;;;;;;;18.25;8.43;;;21.40;39.50;;;;;;6159789;28;81638;-69
2021/12/27 08:18:33;;;;;;;15.70;8.30;;;21.40;39.40;;;;;;6159376;28;80857;-70
2021/12/27 08:21:33;;;;;;;19.85;8.23;;;21.40;39.50;;;;;;6159802;28;80497;-67
2021/12/27 08:24:34;;;;;;;15.82;8.40;;;21.40;39.60;;;;;;6159631;28;80381;-66
2021/12/27 08:27:34;;;;;;;17.38;9.15;;;21.50;39.20;;;;;;6146495;28;80077;-68
2021/12/27 08:30:36;;;;;;;17.55;10.02;;;21.60;39.20;;;;;;6157234;28;80343;-67
2021/12/27 08:33:37;;;;;;;21.80;12.55;;;21.70;39.30;;;;;;6156138;28;83327;-66
2021/12/27 08:36:38;;;;;;;25.15;12.20;;;21.80;38.60;;;;;;6156905;28;83037;-67
2021/12/27 08:39:38;;;;;;;23.95;12.80;;;21.80;38.90;;;;;;6153809;28;82956;-70
2021/12/27 08:42:39;;;;;;;25.02;13.50;;;21.90;38.30;;;;;;6152570;28;83227;-66
2021/12/27 08:45:39;;;;;;;21.33;12.55;;;21.90;38.50;;;;;;6149808;28;83095;-66
2021/12/27 08:48:40;;;;;;;25.00;12.80;;;22.00;38.50;;;;;;6147458;28;82862;-64
2021/12/27 08:51:40;;;;;;;25.67;13.90;;;22.00;38.30;;;;;;6146237;28;83195;-65
2021/12/27 08:54:41;;;;;;;27.90;13.40;;;22.00;38.00;;;;;;6151639;28;83825;-64
2021/12/27 08:57:41;;;;;;;23.38;13.18;;;22.00;38.10;;;;;;6152185;28;84440;-64
2021/12/27 09:00:42;;;;;;;24.17;13.13;;;22.10;37.90;;;;;;6154610;28;83468;-67
2021/12/27 09:03:42;;;;;;;23.02;13.48;;;22.10;38.30;;;;;;6153278;28;84392;-68
2021/12/27 09:06:43;;;;;;;24.92;13.85;;;22.20;38.20;;;;;;6157198;28;83494;-66
2021/12/27 09:09:44;;;;;;;32.47;15.57;;;22.20;38.20;;;;;;6155533;28;83141;-65
2021/12/27 09:12:45;;;;;;;25.10;14.30;;;22.20;38.20;;;;;;6155566;28;83209;-66
2021/12/27 09:15:45;;;;;;;28.42;14.10;;;22.30;39.00;;;;;;6154968;28;84005;-63
2021/12/27 09:18:46;;;;;;;25.63;13.85;;;22.30;38.30;;;;;;6155196;28;83428;-65
2021/12/27 09:21:46;;;;;;;27.40;14.05;;;22.30;38.40;;;;;;6155523;28;84078;-65
2021/12/27 09:24:47;;;;;;;25.95;14.32;;;22.40;38.50;;;;;;6154480;28;82955;-64
2021/12/27 09:27:47;;;;;;;28.70;14.23;;;22.40;38.30;;;;;;6156591;28;82755;-65
2021/12/27 09:30:48;;;;;;;24.75;13.93;;;22.40;38.30;;;;;;6155433;28;83211;-65
2021/12/27 09:33:48;;;;;;;25.05;13.70;;;22.40;38.20;;;;;;6152234;28;84198;-65
2021/12/27 09:36:49;;;;;;;27.48;14.90;;;22.40;38.40;;;;;;6153951;28;83067;-68
2021/12/27 09:39:55;;;;;;;26.60;15.23;;;22.50;38.20;;;;;;6151654;28;84793;-66
2021/12/27 09:42:56;;;;;;;26.95;14.50;;;22.50;38.40;;;;;;6153826;28;83765;-67
2021/12/27 09:45:56;;;;;;;25.70;14.45;;;22.50;38.50;;;;;;6152201;28;83520;-67
2021/12/27 09:48:57;;;;;;;29.40;14.77;;;22.50;38.10;;;;;;6152555;28;83428;-66
2021/12/27 09:51:57;;;;;;;24.83;14.73;;;22.50;38.60;;;;;;6149145;28;83185;-67
2021/12/27 09:54:58;;;;;;;28.92;15.75;;;22.50;38.40;;;;;;6151012;28;84757;-67
2021/12/27 09:57:59;;;;;;;25.38;14.48;;;22.50;38.30;;;;;;6152525;28;83007;-67
2021/12/27 10:01:03;;;;;;;25.48;14.77;;;22.50;38.40;;;;;;6154735;28;84393;-67
2021/12/27 10:04:03;;;;;;;29.15;14.32;;;22.50;38.30;;;;;;6152426;28;83197;-66
2021/12/27 10:07:04;;;;;;;23.45;14.02;;;22.50;38.40;;;;;;6151027;28;82978;-67
2021/12/27 10:10:04;;;;;;;24.08;14.40;;;22.50;38.00;;;;;;6149670;28;85759;-69
2021/12/27 10:13:05;;;;;;;24.63;15.15;;;22.50;38.20;;;;;;6151512;28;83106;-67
2021/12/27 10:16:05;;;;;;;25.73;14.45;;;22.50;38.30;;;;;;6147924;28;83713;-66
2021/12/27 10:19:06;;;;;;;22.75;14.15;;;22.50;37.90;;;;;;6148616;28;83414;-65
2021/12/27 10:22:06;;;;;;;24.42;13.02;;;22.50;38.50;;;;;;6157612;28;83538;-65
2021/12/27 10:25:07;;;;;;;20.42;13.35;;;22.50;38.80;;;;;;6159548;27;83744;-70
2021/12/27 10:28:07;;;;;;;22.30;13.10;;;22.50;38.70;;;;;;6158258;28;83619;-67
2021/12/27 10:31:08;;;;;;;25.55;13.02;;;22.50;39.00;;;;;;6158759;28;84186;-66
2021/12/27 10:34:08;;;;;;;20.23;12.52;;;22.50;39.00;;;;;;6157753;28;82905;-73
2021/12/27 10:37:09;;;;;;;18.58;11.00;;;22.50;38.80;;;;;;6154039;28;84625;-67
2021/12/27 10:40:09;;;;;;;19.98;12.30;;;22.50;39.30;;;;;;6148873;28;84766;-65
2021/12/27 10:43:11;;;;;;;21.17;12.95;;;22.40;39.50;;;;;;6155197;28;83867;-67
2021/12/27 10:46:12;;;;;;;26.17;12.65;;;22.50;39.90;;;;;;6154284;28;84636;-66
2021/12/27 10:49:13;;;;;;;26.13;12.60;;;22.50;41.20;;;;;;6158240;28;83162;-65
2021/12/27 10:52:14;;;;;;;20.77;11.75;;;22.50;41.80;;;;;;6156146;28;84299;-66
2021/12/27 10:55:14;;;;;;;36.20;15.93;;;22.50;42.50;;;;;;6158472;28;83114;-65
2021/12/27 10:58:15;;;;;;;31.70;15.75;;;22.50;43.10;;;;;;6157076;28;84875;-66
2021/12/27 11:01:18;;;;;;;38.55;17.17;;;22.50;44.20;;;;;;6155883;28;85465;-66
2021/12/27 11:04:18;;;;;;;31.42;16.35;;;22.50;45.10;;;;;;6157366;28;82894;-66
2021/12/27 11:07:19;;;;;;;36.55;18.42;;;22.50;45.50;;;;;;6164714;28;82956;-68
2021/12/27 11:10:20;;;;;;;39.55;16.83;;;22.50;46.00;;;;;;6157772;28;83190;-67
2021/12/27 11:13:21;;;;;;;38.30;17.17;;;22.50;46.00;;;;;;6152855;28;84286;-66
2021/12/27 11:16:21;;;;;;;39.63;17.30;;;22.50;46.30;;;;;;6156928;28;83160;-67
2021/12/27 11:19:22;;;;;;;37.78;17.10;;;22.40;46.60;;;;;;6154647;28;84002;-66
2021/12/27 11:22:22;;;;;;;45.78;21.80;;;22.40;46.50;;;;;;6159636;28;84008;-68
2021/12/27 11:25:23;;;;;;;37.17;18.17;;;22.40;47.10;;;;;;6152404;28;84705;-63
2021/12/27 11:28:23;;;;;;;40.35;19.77;;;22.40;46.90;;;;;;6153024;28;84350;-65
2021/12/27 11:31:24;;;;;;;39.03;19.67;;;22.40;47.00;;;;;;6156689;28;85075;-66
2021/12/27 11:34:24;;;;;;;35.80;19.75;;;22.40;46.80;;;;;;6157402;28;83035;-66
2021/12/27 11:37:25;;;;;;;39.95;20.58;;;22.40;47.20;;;;;;6153914;28;83519;-67
2021/12/27 11:40:26;;;;;;;37.10;20.45;;;22.30;47.40;;;;;;6151106;28;83236;-67
2021/12/27 11:43:26;;;;;;;41.33;21.00;;;22.40;47.60;;;;;;6153850;28;83069;-66
2021/12/27 11:46:27;;;;;;;41.20;20.35;;;22.30;47.90;;;;;;6155900;28;84597;-67
2021/12/27 11:49:27;;;;;;;46.25;21.17;;;22.30;48.20;;;;;;6148808;28;83161;-67
2021/12/27 11:52:28;;;;;;;39.20;20.20;;;22.30;48.20;;;;;;6149310;28;83182;-67
2021/12/27 11:55:30;;;;;;;39.47;19.63;;;22.30;48.50;;;;;;6147716;28;84014;-67
2021/12/27 11:58:32;;;;;;;41.30;19.33;;;22.30;48.40;;;;;;6153780;28;83215;-66
2021/12/27 12:01:32;;;;;;;31.60;17.80;;;22.20;47.90;;;;;;6154019;28;83270;-68
2021/12/27 12:04:33;;;;;;;31.58;17.83;;;22.20;47.50;;;;;;6156129;28;83517;-66
2021/12/27 12:07:33;;;;;;;35.45;18.73;;;22.20;47.30;;;;;;6155684;28;83186;-66
2021/12/27 12:10:34;;;;;;;31.13;17.13;;;22.10;46.70;;;;;;6157150;28;83877;-66
2021/12/27 12:13:34;;;;;;;24.30;15.43;;;22.10;46.50;;;;;;6152060;28;84306;-66
2021/12/27 12:16:35;;;;;;;32.22;15.73;;;22.10;46.30;;;;;;6150418;28;83617;-65
2021/12/27 12:19:35;;;;;;;27.45;15.38;;;22.10;46.00;;;;;;6156716;28;84316;-71
2021/12/27 12:22:37;;;;;;;31.20;15.68;;;22.00;46.60;;;;;;6158194;28;83223;-67
2021/12/27 12:25:37;;;;;;;29.90;15.13;;;22.00;45.60;;;;;;6155554;28;83490;-67
2021/12/27 12:28:38;;;;;;;24.58;14.77;;;22.00;45.80;;;;;;6153759;28;85180;-67
2021/12/27 12:31:38;;;;;;;25.35;14.00;;;22.00;45.70;;;;;;6156052;28;86061;-66
2021/12/27 12:34:39;;;;;;;27.63;13.73;;;22.00;45.40;;;;;;6144570;28;83134;-66
2021/12/27 12:37:39;;;;;;;27.48;13.38;;;22.00;45.30;;;;;;6150386;28;84257;-67
2021/12/27 12:40:40;;;;;;;27.38;13.35;;;22.00;45.00;;;;;;6151007;28;84259;-66
2021/12/27 12:43:41;;;;;;;21.48;13.10;;;21.90;45.30;;;;;;6153153;28;85967;-68
2021/12/27 12:46:43;;;;;;;23.52;13.02;;;21.90;44.30;;;;;;6148194;28;82965;-68
2021/12/27 12:49:44;;;;;;;22.30;13.77;;;21.90;44.00;;;;;;6144853;28;83563;-66
2021/12/27 12:52:52;;;;;;;24.35;14.05;;;21.90;43.50;;;;;;6152772;28;85443;-68
2021/12/27 12:55:53;;;;;;;29.40;14.98;;;21.90;43.10;;;;;;6154550;28;85275;-68
2021/12/27 12:58:53;;;;;;;22.88;13.43;;;22.00;42.70;;;;;;6155402;28;83950;-68
2021/12/27 13:01:54;;;;;;;26.25;14.00;;;22.00;42.60;;;;;;6155696;28;82927;-67
2021/12/27 13:04:55;;;;;;;25.88;15.00;;;22.00;42.40;;;;;;6155240;28;83980;-68
2021/12/27 13:07:55;;;;;;;21.35;13.63;;;22.10;42.40;;;;;;6155544;28;83221;-68
2021/12/27 13:10:56;;;;;;;22.88;13.95;;;22.10;42.40;;;;;;6154685;28;82954;-68
2021/12/27 13:13:57;;;;;;;26.15;15.13;;;22.10;42.30;;;;;;6155332;28;83271;-68
2021/12/27 13:16:57;;;;;;;24.50;13.93;;;22.20;42.30;;;;;;6152938;28;84211;-69
2021/12/27 13:19:58;;;;;;;25.67;14.27;;;22.20;42.70;;;;;;6148386;28;84468;-67
2021/12/27 13:22:58;;;;;;;24.15;14.60;;;22.20;42.30;;;;;;6153183;28;84449;-67
2021/12/27 13:25:59;;;;;;;20.95;13.43;;;22.20;42.00;;;;;;6156277;28;83025;-66
2021/12/27 13:29:01;;;;;;;25.25;14.40;;;22.20;41.70;;;;;;6143043;28;83985;-65
2021/12/27 13:32:01;;;;;;;22.02;13.43;;;22.20;41.60;;;;;;6153260;28;84026;-66
2021/12/27 13:35:02;;;;;;;22.67;13.32;;;22.20;41.50;;;;;;6154239;28;82896;-66
2021/12/27 13:38:02;;;;;;;25.25;13.73;;;22.20;41.60;;;;;;6154070;28;83864;-65
2021/12/27 13:41:03;;;;;;;24.05;12.98;;;22.20;41.50;;;;;;6153365;28;83382;-66
2021/12/27 13:44:03;;;;;;;26.50;13.73;;;22.20;41.30;;;;;;6143927;28;83066;-66
2021/12/27 13:47:04;;;;;;;23.73;14.48;;;22.20;41.00;;;;;;6153150;28;83218;-66
2021/12/27 13:50:04;;;;;;;22.30;12.65;;;22.20;41.10;;;;;;6154167;28;83251;-66
2021/12/27 13:53:05;;;;;;;23.75;13.88;;;22.20;41.00;;;;;;6154333;28;86451;-66
2021/12/27 13:56:05;;;;;;;21.75;12.55;;;22.20;41.10;;;;;;6155005;28;83252;-66
2021/12/27 13:59:06;;;;;;;23.88;14.07;;;22.20;40.90;;;;;;6157150;28;84513;-66
2021/12/27 14:02:07;;;;;;;24.85;13.45;;;22.20;40.80;;;;;;6159048;28;83703;-66
2021/12/27 14:05:07;;;;;;;20.75;12.82;;;22.20;40.60;;;;;;6159126;28;83256;-66
2021/12/27 14:08:08;;;;;;;23.58;13.35;;;22.20;40.70;;;;;;6158947;28;83039;-67
2021/12/27 14:11:10;;;;;;;21.20;13.25;;;22.20;40.70;;;;;;6156336;28;83038;-66
2021/12/27 14:14:10;;;;;;;24.58;13.88;;;22.20;40.70;;;;;;6181345;28;84071;-66
2021/12/27 14:17:11;;;;;;;20.42;12.13;;;22.20;40.60;;;;;;6157710;28;83123;-66
2021/12/27 14:20:11;;;;;;;21.90;12.60;;;22.20;40.60;;;;;;6158208;28;82887;-66
2021/12/27 14:23:12;;;;;;;23.92;14.05;;;22.20;40.60;;;;;;6158772;28;83261;-67
2021/12/27 14:26:13;;;;;;;21.88;13.35;;;22.20;40.50;;;;;;6158510;28;83844;-67
2021/12/27 14:29:13;;;;;;;26.30;13.63;;;22.10;40.50;;;;;;6158547;28;83193;-66
2021/12/27 14:32:14;;;;;;;21.13;12.90;;;22.10;40.70;;;;;;6157136;28;84769;-67
2021/12/27 14:35:15;;;;;;;20.63;12.52;;;22.10;40.90;;;;;;6160373;28;83825;-68
2021/12/27 14:38:17;;;;;;;18.35;11.98;;;22.00;40.90;;;;;;6166133;28;83243;-69
2021/12/27 14:41:17;;;;;;;21.98;13.13;;;22.00;41.20;;;;;;6160211;28;83303;-66
2021/12/27 14:44:18;;;;;;;23.08;13.38;;;22.00;42.00;;;;;;6158468;28;83298;-66
2021/12/27 14:47:19;;;;;;;26.45;13.93;;;22.00;41.50;;;;;;6156309;28;83127;-67
2021/12/27 14:50:19;;;;;;;23.90;14.18;;;22.00;42.30;;;;;;6158375;28;83010;-71
2021/12/27 14:53:20;;;;;;;27.13;14.88;;;22.00;41.10;;;;;;6158914;28;83273;-71
2021/12/27 14:56:20;;;;;;;25.25;14.80;;;22.00;41.60;;;;;;6154634;28;85903;-70
2021/12/27 14:59:21;;;;;;;22.85;14.07;;;22.00;42.00;;;;;;6155904;28;83043;-65
2021/12/27 15:02:21;;;;;;;25.02;14.57;;;22.00;41.20;;;;;;6156183;28;83937;-68
2021/12/27 15:05:22;;;;;;;22.35;13.35;;;22.00;41.20;;;;;;6157327;28;83139;-65
2021/12/27 15:08:22;;;;;;;25.70;14.68;;;22.00;41.00;;;;;;6158168;28;83152;-62
2021/12/27 15:11:23;;;;;;;26.65;14.80;;;22.00;41.80;;;;;;6156877;28;83494;-67
2021/12/27 15:14:23;;;;;;;23.70;13.32;;;22.00;40.90;;;;;;6154597;28;83218;-70
2021/12/27 15:17:26;;;;;;;25.17;14.13;;;22.00;41.20;;;;;;6150381;28;84074;-70
2021/12/27 15:20:26;;;;;;;22.92;13.48;;;21.90;41.10;;;;;;6154724;28;84052;-70
2021/12/27 15:23:27;;;;;;;24.42;14.52;;;21.90;40.90;;;;;;6151672;28;85439;-67
2021/12/27 15:26:27;;;;;;;23.05;13.52;;;21.90;41.10;;;;;;6148399;28;84243;-67